Time;durP1;ratioP1;P1;durP2;ratioP2;P2;SDS_P1;SDS_P2;PMS_P1;PMS_P2;Temp;Humidity;BMP_temperature;BMP_pressure;BME280_temperature;BME280_humidity;BME280_pressure;Samples;Min_cycle;Max_cycle;Signal;HPM_P1;HPM_P2
2022/12/06 00:01:18;;;;;;;16.90;5.57;;;5.70;99.90;;;;;;5094826;28;19923;-74
2022/12/06 00:03:45;;;;;;;13.82;5.65;;;5.70;99.90;;;;;;5094876;28;20051;-74
2022/12/06 00:06:15;;;;;;;19.13;6.10;;;5.70;99.90;;;;;;5094152;28;20396;-75
2022/12/06 00:08:41;;;;;;;16.85;5.32;;;5.70;99.90;;;;;;5094530;28;20489;-74
2022/12/06 00:11:16;;;;;;;20.63;5.53;;;5.70;99.90;;;;;;5094346;28;20047;-75
2022/12/06 00:13:43;;;;;;;20.60;5.13;;;5.70;99.90;;;;;;5094349;28;20047;-74
2022/12/06 00:16:11;;;;;;;16.98;5.30;;;5.70;99.90;;;;;;5093251;28;20360;-73
2022/12/06 00:18:39;;;;;;;18.52;4.95;;;5.70;99.90;;;;;;5094346;28;20131;-73
2022/12/06 00:21:11;;;;;;;14.32;4.32;;;5.70;99.90;;;;;;5094348;28;20483;-73
2022/12/06 00:23:38;;;;;;;14.25;5.07;;;5.70;99.90;;;;;;5094021;28;20496;-73
2022/12/06 00:26:05;;;;;;;13.00;4.10;;;5.70;99.90;;;;;;5094212;28;20052;-73
2022/12/06 00:28:33;;;;;;;13.18;4.18;;;5.70;99.90;;;;;;5093920;28;20434;-73
2022/12/06 00:31:00;;;;;;;10.52;3.80;;;5.60;99.90;;;;;;5094088;28;20040;-73
2022/12/06 00:33:26;;;;;;;16.48;3.97;;;5.60;99.90;;;;;;5093828;28;20040;-73
2022/12/06 00:36:00;;;;;;;10.27;3.20;;;5.60;99.90;;;;;;5109787;28;20059;-73
2022/12/06 00:38:27;;;;;;;15.30;3.45;;;5.60;99.90;;;;;;5093848;28;20339;-73
2022/12/06 00:41:00;;;;;;;14.07;3.67;;;5.60;99.90;;;;;;5093921;28;20090;-73
2022/12/06 00:43:26;;;;;;;15.95;3.38;;;5.60;99.90;;;;;;5093771;28;20071;-74
2022/12/06 00:45:53;;;;;;;10.88;3.00;;;5.60;99.90;;;;;;5093918;28;20434;-73
2022/12/06 00:48:18;;;;;;;12.45;3.20;;;5.50;99.90;;;;;;5093251;28;20510;-74
2022/12/06 00:50:44;;;;;;;12.67;3.43;;;5.50;99.90;;;;;;5093751;28;20044;-74
2022/12/06 00:53:10;;;;;;;8.73;3.30;;;5.60;99.90;;;;;;5093782;28;20109;-74
2022/12/06 00:55:36;;;;;;;9.63;3.17;;;5.60;99.90;;;;;;5092272;28;20127;-74
2022/12/06 00:58:01;;;;;;;9.03;3.30;;;5.60;99.90;;;;;;5093797;28;20124;-73
2022/12/06 01:00:27;;;;;;;16.73;3.83;;;5.60;99.90;;;;;;5093437;28;20056;-74
2022/12/06 01:02:53;;;;;;;11.93;3.53;;;5.60;99.90;;;;;;5093580;28;20047;-74
2022/12/06 01:05:19;;;;;;;11.87;3.60;;;5.60;99.90;;;;;;5093317;28;20388;-74
2022/12/06 01:07:44;;;;;;;7.47;3.30;;;5.50;99.90;;;;;;5093493;28;20122;-74
2022/12/06 01:10:10;;;;;;;10.63;3.60;;;5.50;99.90;;;;;;5093563;28;20126;-74
2022/12/06 01:12:36;;;;;;;10.07;3.10;;;5.60;99.90;;;;;;5093149;28;20044;-74
2022/12/06 01:15:02;;;;;;;11.70;3.27;;;5.60;99.90;;;;;;5093370;28;20488;-74
2022/12/06 01:17:28;;;;;;;10.97;2.93;;;5.60;99.90;;;;;;5093123;28;20126;-74
2022/12/06 01:19:53;;;;;;;8.83;3.23;;;5.60;99.90;;;;;;5093398;28;20044;-74
2022/12/06 01:22:19;;;;;;;12.87;3.97;;;5.60;99.90;;;;;;5093093;28;20052;-74
2022/12/06 01:24:46;;;;;;;8.67;2.73;;;5.60;99.90;;;;;;5092384;28;20048;-74
2022/12/06 01:27:11;;;;;;;8.95;2.70;;;5.60;99.90;;;;;;5093308;28;20102;-74
2022/12/06 01:29:37;;;;;;;9.33;2.70;;;5.60;99.90;;;;;;5092933;28;20103;-74
2022/12/06 01:32:03;;;;;;;10.00;3.07;;;5.50;99.90;;;;;;5093233;28;20450;-74
2022/12/06 01:34:28;;;;;;;13.20;2.93;;;5.60;99.90;;;;;;5092903;28;20054;-74
2022/12/06 01:36:54;;;;;;;12.53;3.03;;;5.60;99.90;;;;;;5093372;28;20051;-74
2022/12/06 01:39:20;;;;;;;8.33;2.80;;;5.50;99.90;;;;;;5092852;28;20083;-74
2022/12/06 01:41:46;;;;;;;6.73;2.43;;;5.50;99.90;;;;;;5099763;28;20054;-74
2022/12/06 01:44:43;;;;;;;7.67;2.50;;;5.50;99.90;;;;;;5098826;28;20472;-74
2022/12/06 01:47:19;;;;;;;14.93;3.40;;;5.40;99.90;;;;;;5115464;28;20173;-74
2022/12/06 01:50:00;;;;;;;8.52;2.80;;;5.40;99.90;;;;;;5099715;28;20094;-74
2022/12/06 01:52:38;;;;;;;10.63;2.95;;;5.40;99.90;;;;;;5099542;28;20054;-74
2022/12/06 01:55:07;;;;;;;6.32;2.40;;;5.40;99.90;;;;;;5098569;28;20091;-74
2022/12/06 01:57:33;;;;;;;7.28;2.30;;;5.40;99.90;;;;;;5098023;28;20060;-74
2022/12/06 02:00:00;;;;;;;9.85;2.88;;;5.30;99.90;;;;;;5099690;28;20048;-74
2022/12/06 02:02:26;;;;;;;5.65;2.38;;;5.30;99.90;;;;;;5081182;28;20094;-74
2022/12/06 02:04:52;;;;;;;8.87;2.63;;;5.30;99.90;;;;;;5098606;28;20048;-74
2022/12/06 02:07:20;;;;;;;8.60;2.90;;;5.30;99.90;;;;;;5099817;28;20176;-74
2022/12/06 02:09:46;;;;;;;9.52;3.38;;;5.20;99.90;;;;;;5099577;28;20048;-74
2022/12/06 02:12:14;;;;;;;11.27;2.83;;;5.20;99.90;;;;;;5099590;28;20055;-74
2022/12/06 02:14:41;;;;;;;9.32;2.95;;;5.20;99.90;;;;;;5099285;28;20384;-74
2022/12/06 02:17:18;;;;;;;8.05;3.20;;;5.20;99.90;;;;;;5099576;28;20044;-74
2022/12/06 02:20:02;;;;;;;12.77;3.90;;;5.30;99.90;;;;;;5099221;28;20463;-75
2022/12/06 02:22:47;;;;;;;6.78;3.20;;;5.30;99.90;;;;;;5099244;28;20059;-75
2022/12/06 02:25:35;;;;;;;8.65;3.30;;;5.30;99.90;;;;;;5098747;28;20055;-75
2022/12/06 02:28:35;;;;;;;10.82;3.13;;;5.40;99.90;;;;;;5098721;28;20604;-75
2022/12/06 02:31:10;;;;;;;7.15;2.83;;;5.50;99.90;;;;;;5099502;28;20085;-75
2022/12/06 02:33:48;;;;;;;8.52;3.42;;;5.50;99.90;;;;;;5099131;28;20087;-75
2022/12/06 02:36:23;;;;;;;7.78;3.20;;;5.50;99.90;;;;;;5098036;28;20131;-75
2022/12/06 02:38:56;;;;;;;10.13;3.20;;;5.50;99.90;;;;;;5099384;28;20090;-75
2022/12/06 02:41:33;;;;;;;8.25;3.35;;;5.50;99.90;;;;;;5098494;28;20139;-75
2022/12/06 02:44:11;;;;;;;10.20;4.15;;;5.50;99.90;;;;;;5099715;28;20043;-75
2022/12/06 02:46:40;;;;;;;7.28;2.90;;;5.40;99.90;;;;;;5099025;28;20110;-75
2022/12/06 02:49:07;;;;;;;7.25;3.28;;;5.40;99.90;;;;;;5099257;28;20048;-75
2022/12/06 02:51:36;;;;;;;10.05;3.40;;;5.40;99.90;;;;;;5096706;28;20435;-75
2022/12/06 02:54:06;;;;;;;7.68;2.95;;;5.40;99.90;;;;;;5096280;28;20040;-75
2022/12/06 02:56:33;;;;;;;10.48;3.08;;;5.40;99.90;;;;;;5095466;28;20056;-75
2022/12/06 02:58:59;;;;;;;8.98;3.50;;;5.50;99.90;;;;;;5096249;28;20044;-75
2022/12/06 03:01:33;;;;;;;9.20;3.77;;;5.40;99.90;;;;;;5095923;28;20047;-75
2022/12/06 03:04:10;;;;;;;9.23;3.08;;;5.40;99.90;;;;;;5095865;28;20048;-75
2022/12/06 03:07:07;;;;;;;7.97;3.53;;;5.40;99.90;;;;;;5095436;28;20052;-75
2022/12/06 03:09:40;;;;;;;7.75;2.75;;;5.40;99.90;;;;;;5094334;28;20044;-75
2022/12/06 03:12:47;;;;;;;6.78;3.15;;;5.40;99.90;;;;;;5095772;28;20134;-75
2022/12/06 03:15:14;;;;;;;;;;;5.40;99.90;;;;;;5098118;28;20134;-75
2022/12/06 03:17:46;;;;;;;8.05;2.85;;;5.30;99.90;;;;;;5095419;28;19927;-75
2022/12/06 03:20:20;;;;;;;9.40;3.88;;;5.30;99.90;;;;;;5095827;28;20083;-75
2022/12/06 03:22:50;;;;;;;12.10;4.00;;;5.30;99.90;;;;;;5094087;28;20051;-75
2022/12/06 03:25:16;;;;;;;9.23;4.80;;;5.30;99.90;;;;;;5095551;28;20036;-74
2022/12/06 03:27:42;;;;;;;10.95;4.80;;;5.30;99.90;;;;;;5094986;28;20054;-75
2022/12/06 03:30:11;;;;;;;11.48;5.45;;;5.20;99.90;;;;;;5095386;28;20048;-74
2022/12/06 03:32:40;;;;;;;12.70;5.82;;;5.20;99.90;;;;;;5094946;28;20052;-75
2022/12/06 03:35:10;;;;;;;10.68;4.30;;;5.20;99.90;;;;;;5095222;28;20036;-74
2022/12/06 03:37:39;;;;;;;8.60;3.90;;;5.20;99.90;;;;;;5094943;28;20086;-75
2022/12/06 03:40:14;;;;;;;9.30;3.38;;;5.20;99.90;;;;;;5095176;28;20051;-74
2022/12/06 03:42:40;;;;;;;10.98;3.65;;;5.20;99.90;;;;;;5094984;28;20134;-75
2022/12/06 03:45:08;;;;;;;9.27;3.80;;;5.30;99.90;;;;;;5095059;28;20127;-75
2022/12/06 03:48:00;;;;;;;12.27;3.67;;;5.20;99.90;;;;;;5094749;28;20052;-75
2022/12/06 03:51:07;;;;;;;9.60;3.67;;;5.30;99.90;;;;;;5094995;28;20048;-75
2022/12/06 03:53:33;;;;;;;9.55;4.07;;;5.30;99.90;;;;;;5112594;28;20376;-75
2022/12/06 03:55:59;;;;;;;13.50;4.23;;;5.30;99.90;;;;;;5112582;28;20040;-75
2022/12/06 03:58:25;;;;;;;15.03;5.50;;;5.20;99.90;;;;;;5104201;28;20527;-75
2022/12/06 04:00:51;;;;;;;7.73;4.27;;;5.30;99.90;;;;;;5094520;28;20392;-75
2022/12/06 04:03:17;;;;;;;12.57;4.60;;;5.20;99.90;;;;;;5094402;28;20289;-74
2022/12/06 04:05:42;;;;;;;9.73;4.03;;;5.30;99.90;;;;;;5094521;28;20040;-75
2022/12/06 04:08:08;;;;;;;9.80;4.20;;;5.30;99.90;;;;;;5093480;28;20479;-74
2022/12/06 04:10:34;;;;;;;10.50;4.60;;;5.40;99.90;;;;;;5093064;28;20396;-74
2022/12/06 04:13:00;;;;;;;10.20;4.13;;;5.30;99.90;;;;;;5093424;28;20048;-75
2022/12/06 04:15:28;;;;;;;10.50;4.30;;;5.30;99.90;;;;;;5094490;28;20468;-75
2022/12/06 04:18:12;;;;;;;7.88;4.30;;;5.30;99.90;;;;;;5094209;28;20392;-75
2022/12/06 04:23:40;;;;;;;10.77;4.80;;;5.30;99.90;;;;;;5094180;28;20048;-75
2022/12/06 04:26:08;;;;;;;12.27;5.25;;;5.30;99.90;;;;;;5094174;28;20075;-75
2022/12/06 04:39:33;;;;;;;9.57;4.10;;;5.30;99.90;;;;;;5093209;28;20420;-75
2022/12/06 04:44:44;;;;;;;14.00;4.93;;;5.30;99.90;;;;;;5093742;28;20137;-75
2022/12/06 04:47:10;;;;;;;12.52;4.20;;;5.40;99.90;;;;;;5092728;28;20044;-75
2022/12/06 04:49:36;;;;;;;9.27;4.63;;;5.40;99.90;;;;;;5093774;28;20044;-75
2022/12/06 04:52:04;;;;;;;12.90;4.68;;;5.30;99.90;;;;;;5093165;28;20499;-75
2022/12/06 04:54:30;;;;;;;8.95;4.13;;;5.40;99.90;;;;;;5093692;28;20040;-75
2022/12/06 04:56:57;;;;;;;10.47;4.00;;;5.40;99.90;;;;;;5093348;28;20416;-75
2022/12/06 04:59:24;;;;;;;11.95;4.38;;;5.40;99.90;;;;;;5093932;28;20055;-76
2022/12/06 05:01:49;;;;;;;7.10;3.03;;;5.40;99.90;;;;;;5093438;28;20044;-76
2022/12/06 05:04:15;;;;;;;7.23;2.97;;;5.30;99.90;;;;;;5092777;28;20044;-76
2022/12/06 05:06:41;;;;;;;8.57;3.10;;;5.10;99.90;;;;;;5093426;28;20044;-76
2022/12/06 05:09:07;;;;;;;9.73;3.30;;;5.20;99.90;;;;;;5093522;28;20499;-75
2022/12/06 05:11:32;;;;;;;10.30;4.00;;;5.20;99.90;;;;;;5092659;28;20048;-75
2022/12/06 05:13:59;;;;;;;11.50;3.57;;;5.20;99.90;;;;;;5092142;28;20102;-75
2022/12/06 05:16:25;;;;;;;12.30;3.47;;;5.20;99.90;;;;;;5092762;28;20044;-75
2022/12/06 05:18:51;;;;;;;9.90;3.67;;;5.20;99.90;;;;;;5093079;28;20090;-76
2022/12/06 05:21:19;;;;;;;6.23;3.00;;;5.30;99.90;;;;;;5093412;28;20079;-75
2022/12/06 05:23:45;;;;;;;10.80;3.85;;;5.30;99.90;;;;;;5093042;28;20040;-76
2022/12/06 05:26:16;;;;;;;9.63;3.17;;;5.30;99.90;;;;;;5092458;28;20189;-76
2022/12/06 05:28:43;;;;;;;7.32;3.78;;;5.30;99.90;;;;;;5093459;28;20055;-76
2022/12/06 05:31:09;;;;;;;7.40;2.90;;;5.20;99.90;;;;;;5093261;28;20126;-76
2022/12/06 05:33:36;;;;;;;7.95;2.80;;;5.30;99.90;;;;;;5092283;28;20450;-76
2022/12/06 05:36:23;;;;;;;9.23;3.20;;;5.30;99.90;;;;;;5092850;28;20110;-76
2022/12/06 05:38:50;;;;;;;7.10;3.10;;;5.20;99.90;;;;;;5092960;28;20135;-76
2022/12/06 05:41:15;;;;;;;9.30;2.88;;;5.20;99.90;;;;;;5092997;28;20086;-76
2022/12/06 05:43:41;;;;;;;8.53;3.23;;;5.20;99.90;;;;;;5093291;28;20052;-76
2022/12/06 05:46:07;;;;;;;8.93;3.03;;;5.20;99.90;;;;;;5092947;28;20082;-76
2022/12/06 05:48:33;;;;;;;7.57;2.93;;;5.00;99.90;;;;;;5093246;28;20048;-76
2022/12/06 05:50:59;;;;;;;8.40;2.72;;;5.10;99.90;;;;;;5092820;28;20277;-76
2022/12/06 05:53:25;;;;;;;9.23;3.03;;;5.10;99.90;;;;;;5093072;28;20036;-76
2022/12/06 05:55:51;;;;;;;6.50;2.13;;;5.10;99.90;;;;;;5091089;28;20043;-75
2022/12/06 05:58:17;;;;;;;7.73;2.40;;;5.00;99.90;;;;;;5092764;28;20048;-75
2022/12/06 06:00:48;;;;;;;7.82;2.67;;;4.90;99.90;;;;;;5093023;28;20044;-75
2022/12/06 06:03:15;;;;;;;10.80;2.30;;;4.90;99.90;;;;;;5092972;28;20131;-75
2022/12/06 06:05:49;;;;;;;7.47;2.45;;;5.00;99.90;;;;;;5093015;28;20071;-75
2022/12/06 06:08:16;;;;;;;6.90;2.55;;;5.00;99.90;;;;;;5093175;28;20048;-75
2022/12/06 06:10:42;;;;;;;7.07;2.97;;;4.90;99.90;;;;;;5092901;28;20059;-75
2022/12/06 06:13:08;;;;;;;10.70;2.70;;;4.90;99.90;;;;;;5092699;28;20112;-75
2022/12/06 06:15:34;;;;;;;7.78;2.70;;;4.90;99.90;;;;;;5093037;28;20104;-75
2022/12/06 06:18:00;;;;;;;6.90;2.73;;;4.90;99.90;;;;;;5091682;28;20052;-75
2022/12/06 06:20:25;;;;;;;7.00;2.40;;;4.80;99.90;;;;;;5091972;28;20051;-76
2022/12/06 06:22:51;;;;;;;7.73;2.57;;;4.90;99.90;;;;;;5091662;28;20502;-76
2022/12/06 06:25:17;;;;;;;12.33;3.10;;;4.70;99.90;;;;;;5092216;28;20369;-75
2022/12/06 06:27:42;;;;;;;11.13;2.80;;;4.70;99.90;;;;;;5096153;28;20051;-76
2022/12/06 06:30:10;;;;;;;11.13;2.77;;;4.60;99.90;;;;;;5096348;28;20395;-76
2022/12/06 06:32:36;;;;;;;9.75;2.60;;;4.60;99.90;;;;;;5095609;28;20075;-76
2022/12/06 06:35:03;;;;;;;5.87;2.77;;;4.50;99.90;;;;;;5095058;28;20090;-76
2022/12/06 06:37:29;;;;;;;8.60;2.60;;;4.50;99.90;;;;;;5096362;28;20043;-76
2022/12/06 06:39:55;;;;;;;10.33;2.63;;;4.50;99.90;;;;;;5096252;28;20541;-76
2022/12/06 06:42:21;;;;;;;6.33;2.13;;;4.40;99.90;;;;;;5096622;28;20048;-76
2022/12/06 06:44:46;;;;;;;6.20;2.33;;;4.40;99.90;;;;;;5096402;28;20462;-76
2022/12/06 06:47:12;;;;;;;7.47;2.80;;;4.40;99.90;;;;;;5095016;28;20120;-76
2022/12/06 06:49:38;;;;;;;6.83;2.60;;;4.30;99.90;;;;;;5096291;28;20047;-76
2022/12/06 06:52:05;;;;;;;8.23;3.17;;;4.30;99.90;;;;;;5095921;28;20188;-76
2022/12/06 06:54:30;;;;;;;6.27;2.83;;;4.30;99.90;;;;;;5096051;28;20048;-76
2022/12/06 06:56:56;;;;;;;12.30;2.97;;;4.30;99.90;;;;;;5094560;28;20103;-76
2022/12/06 06:59:23;;;;;;;10.13;3.70;;;4.30;99.90;;;;;;5095646;28;20063;-76
2022/12/06 07:01:49;;;;;;;8.57;3.22;;;4.30;99.90;;;;;;5095919;28;20050;-76
2022/12/06 07:04:14;;;;;;;6.63;3.03;;;4.30;99.90;;;;;;5095643;28;20036;-76
2022/12/06 07:06:40;;;;;;;6.80;3.00;;;4.40;99.90;;;;;;5095706;28;20093;-75
2022/12/06 07:09:06;;;;;;;9.03;3.43;;;4.40;99.90;;;;;;5095620;28;20377;-76
2022/12/06 07:11:31;;;;;;;10.03;3.93;;;4.30;99.90;;;;;;5095809;28;20403;-75
2022/12/06 07:13:57;;;;;;;12.27;4.57;;;4.40;99.90;;;;;;5095332;28;20084;-75
2022/12/06 07:16:23;;;;;;;16.83;7.70;;;4.30;99.90;;;;;;5095780;28;20044;-75
2022/12/06 07:18:49;;;;;;;13.60;7.37;;;4.30;99.90;;;;;;5077889;28;20547;-75
2022/12/06 07:21:15;;;;;;;13.77;7.17;;;4.30;99.90;;;;;;5095237;28;20043;-75
2022/12/06 07:23:42;;;;;;;11.93;5.43;;;4.40;99.90;;;;;;5094337;28;20040;-75
2022/12/06 07:26:12;;;;;;;9.18;4.10;;;4.30;99.90;;;;;;5095109;28;20037;-75
2022/12/06 07:28:40;;;;;;;6.57;3.75;;;4.40;99.90;;;;;;5095454;28;20135;-75
2022/12/06 07:31:18;;;;;;;7.20;2.85;;;4.30;99.90;;;;;;5093811;28;20131;-75
2022/12/06 07:33:44;;;;;;;8.05;3.28;;;4.30;99.90;;;;;;5095287;28;20048;-75
2022/12/06 07:36:12;;;;;;;5.30;2.72;;;4.30;99.90;;;;;;5094889;28;20123;-75
2022/12/06 07:38:38;;;;;;;7.50;2.90;;;4.30;99.90;;;;;;5094458;28;20047;-75
2022/12/06 07:46:48;;;;;;;7.70;3.38;;;4.30;99.90;;;;;;5092835;28;20150;-75
2022/12/06 07:49:15;;;;;;;8.50;2.70;;;4.30;99.90;;;;;;5094851;28;20044;-76
2022/12/06 07:51:42;;;;;;;6.72;2.78;;;4.40;99.90;;;;;;5095123;28;20048;-76
2022/12/06 07:54:07;;;;;;;6.53;2.65;;;4.30;99.90;;;;;;5094536;28;20051;-76
2022/12/06 07:56:33;;;;;;;6.00;2.77;;;4.40;99.90;;;;;;5094571;28;20044;-74
2022/12/06 07:59:00;;;;;;;7.87;2.60;;;4.40;99.90;;;;;;5094857;28;20101;-75
2022/12/06 08:01:26;;;;;;;7.75;2.90;;;4.40;99.90;;;;;;5094657;28;20134;-73
2022/12/06 08:03:54;;;;;;;9.90;3.07;;;4.40;99.90;;;;;;5094639;28;20139;-74
2022/12/06 08:06:19;;;;;;;10.05;2.80;;;4.40;99.90;;;;;;5094400;28;20109;-74
2022/12/06 08:08:45;;;;;;;7.33;3.03;;;4.40;99.90;;;;;;5094664;28;20442;-74
2022/12/06 08:11:11;;;;;;;10.47;3.20;;;4.30;99.90;;;;;;5094381;28;20074;-75
2022/12/06 08:13:37;;;;;;;5.77;2.97;;;4.40;99.90;;;;;;5093416;28;20395;-74
2022/12/06 08:16:07;;;;;;;9.40;3.63;;;4.40;99.90;;;;;;5094195;28;20044;-78
2022/12/06 08:18:33;;;;;;;5.93;2.70;;;4.40;99.90;;;;;;5093772;28;20082;-76
2022/12/06 08:20:59;;;;;;;7.40;3.33;;;4.40;99.90;;;;;;5094383;28;20084;-75
2022/12/06 08:23:25;;;;;;;9.10;3.90;;;4.40;99.90;;;;;;5094088;28;20048;-75
2022/12/06 08:26:00;;;;;;;15.75;3.80;;;4.40;99.90;;;;;;5094334;28;20073;-75
2022/12/06 08:28:27;;;;;;;10.90;3.78;;;4.40;99.90;;;;;;5093982;28;20079;-75
2022/12/06 08:30:52;;;;;;;10.20;4.35;;;4.40;99.90;;;;;;5094202;28;20044;-75
2022/12/06 08:33:18;;;;;;;10.33;3.60;;;4.50;99.90;;;;;;5093987;28;20097;-75
2022/12/06 08:35:44;;;;;;;9.20;3.43;;;4.50;99.90;;;;;;5093163;28;20369;-75
2022/12/06 08:38:10;;;;;;;10.87;4.37;;;4.50;99.90;;;;;;5075689;28;20132;-75
2022/12/06 08:40:35;;;;;;;13.23;4.33;;;4.50;99.90;;;;;;5094239;28;20480;-75
2022/12/06 08:43:01;;;;;;;10.23;3.13;;;4.60;99.90;;;;;;5093929;28;20048;-75
2022/12/06 08:45:27;;;;;;;10.30;3.40;;;4.50;99.90;;;;;;5075765;28;20052;-75
2022/12/06 08:47:52;;;;;;;10.37;3.47;;;4.60;99.90;;;;;;5092929;28;20046;-75
2022/12/06 08:50:18;;;;;;;10.13;3.30;;;4.60;99.90;;;;;;5091700;28;20051;-74
2022/12/06 08:52:44;;;;;;;8.53;3.33;;;4.60;99.90;;;;;;5093801;28;20051;-75
2022/12/06 08:55:09;;;;;;;8.00;3.00;;;4.60;99.90;;;;;;5092378;28;20051;-75
2022/12/06 08:57:35;;;;;;;9.70;3.67;;;4.60;99.90;;;;;;5092282;28;20043;-74
2022/12/06 09:00:01;;;;;;;9.20;3.07;;;4.60;99.90;;;;;;5092746;28;20109;-75
2022/12/06 09:02:27;;;;;;;14.57;3.40;;;4.70;99.90;;;;;;5092517;28;20044;-75
2022/12/06 09:04:52;;;;;;;9.50;4.10;;;4.60;99.90;;;;;;5092377;28;20048;-74
2022/12/06 09:07:18;;;;;;;11.63;3.80;;;4.60;99.90;;;;;;5093416;28;20044;-74
2022/12/06 09:09:47;;;;;;;11.40;4.43;;;4.70;99.90;;;;;;5093656;28;20438;-74
2022/12/06 09:12:13;;;;;;;8.23;4.45;;;4.70;99.90;;;;;;5075761;28;20044;-74
2022/12/06 09:14:38;;;;;;;8.60;3.80;;;4.60;99.90;;;;;;5093646;28;20044;-74
2022/12/06 09:17:05;;;;;;;12.57;4.13;;;4.80;99.90;;;;;;5092228;28;20048;-73
2022/12/06 09:19:31;;;;;;;7.65;3.60;;;4.80;99.90;;;;;;5092094;28;20055;-74
2022/12/06 09:21:57;;;;;;;9.25;3.60;;;4.80;99.90;;;;;;5093038;28;20396;-74
2022/12/06 09:24:22;;;;;;;6.67;3.30;;;4.80;99.90;;;;;;5093063;28;20089;-74
2022/12/06 09:26:48;;;;;;;13.53;4.00;;;4.80;99.90;;;;;;5092672;28;20043;-74
2022/12/06 09:29:15;;;;;;;9.03;3.10;;;4.90;99.90;;;;;;5091777;28;20182;-73
2022/12/06 09:31:40;;;;;;;9.10;3.50;;;4.90;99.90;;;;;;5093241;28;20043;-73
2022/12/06 09:34:07;;;;;;;13.63;3.50;;;4.90;99.90;;;;;;5093365;28;20040;-72
2022/12/06 09:36:40;;;;;;;8.07;4.10;;;5.00;99.90;;;;;;5092987;28;20040;-73
2022/12/06 09:39:15;;;;;;;11.05;3.38;;;5.00;99.90;;;;;;5093197;28;20160;-72
2022/12/06 09:41:52;;;;;;;19.00;4.25;;;5.00;99.90;;;;;;5093582;28;20127;-73
2022/12/06 09:44:39;;;;;;;11.13;3.60;;;5.10;99.90;;;;;;5092810;28;20052;-74
2022/12/06 09:47:39;;;;;;;12.68;3.65;;;5.20;99.90;;;;;;5093237;28;20055;-73
2022/12/06 09:50:12;;;;;;;9.27;3.50;;;5.10;99.90;;;;;;5093119;28;20101;-73
2022/12/06 09:52:38;;;;;;;9.63;3.75;;;5.20;99.90;;;;;;5093304;28;20131;-73
2022/12/06 09:55:09;;;;;;;11.40;3.50;;;5.20;99.90;;;;;;5093065;28;20127;-73
2022/12/06 09:58:01;;;;;;;8.60;3.13;;;5.20;99.90;;;;;;5092722;28;20056;-72
2022/12/06 10:00:31;;;;;;;8.88;4.03;;;;;;;;;;5091807;28;20403;-73
2022/12/06 10:03:15;;;;;;;8.02;3.85;;;5.30;99.90;;;;;;5095756;28;20052;-72
2022/12/06 10:06:04;;;;;;;9.25;3.53;;;5.30;99.90;;;;;;5097162;28;20044;-73
2022/12/06 10:08:36;;;;;;;8.70;3.63;;;;;;;;;;5096801;28;20091;-72
2022/12/06 10:11:21;;;;;;;12.82;3.97;;;;;;;;;;5095910;28;20054;-73
2022/12/06 10:14:05;;;;;;;9.38;3.50;;;;;;;;;;5097121;28;20047;-72
2022/12/06 10:16:31;;;;;;;8.75;3.58;;;;;;;;;;5096291;28;20055;-73
2022/12/06 10:19:14;;;;;;;11.55;3.88;;;;;;;;;;5096763;28;20094;-73
2022/12/06 10:21:48;;;;;;;8.43;3.40;;;;;;;;;;5096827;28;20052;-72
2022/12/06 10:24:32;;;;;;;10.73;4.90;;;;;;;;;;5096861;28;20055;-72
2022/12/06 10:27:24;;;;;;;14.23;4.60;;;5.50;99.90;;;;;;5078749;28;20051;-72
2022/12/06 10:30:00;;;;;;;8.02;3.67;;;5.60;99.90;;;;;;5096689;28;20040;-73
2022/12/06 10:32:47;;;;;;;9.23;3.88;;;5.60;99.90;;;;;;5095435;28;20427;-73
2022/12/06 10:35:17;;;;;;;8.80;3.97;;;;;;;;;;5096433;28;20048;-75
2022/12/06 10:37:43;;;;;;;8.18;4.22;;;;;;;;;;5095065;28;20498;-79
2022/12/06 10:40:21;;;;;;;8.05;4.93;;;;;;;;;;5095643;28;20051;-74
2022/12/06 10:42:50;;;;;;;9.57;3.47;;;;;;;;;;5096329;28;20169;-73
2022/12/06 10:48:24;;;;;;;7.95;3.25;;;;;;;;;;5095419;28;20070;-73
2022/12/06 10:50:53;;;;;;;6.68;3.00;;;;;;;;;;5094992;28;20046;-73
2022/12/06 10:53:21;;;;;;;9.65;3.22;;;;;;;;;;5096092;28;20048;-73
2022/12/06 10:55:54;;;;;;;7.97;3.15;;;;;;;;;;5096239;28;20044;-73
2022/12/06 10:58:23;;;;;;;8.33;3.10;;;;;;;;;;5096333;28;20056;-73
2022/12/06 11:00:56;;;;;;;6.72;2.63;;;;;;;;;;5096100;28;20282;-73
2022/12/06 11:03:30;;;;;;;8.48;3.80;;;;;;;;;;5094926;28;20048;-73
2022/12/06 11:05:59;;;;;;;8.07;2.97;;;;;;;;;;5095886;28;20040;-73
2022/12/06 11:08:32;;;;;;;8.50;2.67;;;;;;;;;;5095525;28;20288;-73
2022/12/06 11:10:58;;;;;;;9.30;3.38;;;;;;;;;;5095822;28;20048;-73
2022/12/06 11:13:36;;;;;;;4.40;2.20;;;;;;;;;;5094337;28;20083;-73
2022/12/06 11:16:10;;;;;;;8.30;2.22;;;;;;;;;;5095700;28;20386;-73
2022/12/06 11:18:37;;;;;;;5.63;2.72;;;;;;;;;;5095494;28;20040;-73
2022/12/06 11:21:11;;;;;;;6.37;2.50;;;;;;;;;;5095631;28;20113;-73
2022/12/06 11:23:38;;;;;;;7.35;2.55;;;;;;;;;;5095497;28;20282;-73
2022/12/06 11:26:21;;;;;;;6.40;2.43;;;;;;;;;;5095476;28;20052;-73
2022/12/06 11:29:06;;;;;;;6.67;2.70;;;;;;;;;;5095314;28;20603;-73
2022/12/06 11:31:36;;;;;;;5.97;2.65;;;;;;;;;;5095225;28;20281;-73
2022/12/06 11:34:08;;;;;;;7.13;3.07;;;6.50;99.90;;;;;;5094472;28;20103;-73
2022/12/06 11:36:34;;;;;;;7.23;2.90;;;;;;;;;;5094114;28;20669;-73
2022/12/06 11:39:00;;;;;;;8.97;2.97;;;;;;;;;;5095430;28;20361;-73
2022/12/06 11:41:29;;;;;;;9.60;2.70;;;;;;;;;;5094260;28;20403;-73
2022/12/06 11:43:55;;;;;;;6.07;2.50;;;;;;;;;;5095344;28;20332;-73
2022/12/06 11:46:22;;;;;;;7.23;2.70;;;;;;;;;;5095057;28;20351;-73
2022/12/06 11:48:48;;;;;;;9.33;2.80;;;;;;;;;;5094708;28;21143;-73
2022/12/06 11:51:16;;;;;;;8.87;2.60;;;;;;;;;;5093874;28;20407;-73
2022/12/06 11:53:54;;;;;;;7.10;2.50;;;;;;;;;;5094808;28;20642;-74
2022/12/06 11:56:22;;;;;;;7.40;2.40;;;;;;;;;;5094828;28;20294;-74
2022/12/06 11:58:54;;;;;;;9.80;2.73;;;;;;;;;;5094394;28;20675;-74
2022/12/06 12:01:35;;;;;;;7.37;2.77;;;;;;;;;;5094954;28;20369;-74
2022/12/06 12:04:21;;;;;;;8.67;3.27;;;;;;;;;;5095140;28;20270;-75
2022/12/06 12:06:49;;;;;;;6.13;2.17;;;;;;;;;;5094531;28;20278;-76
2022/12/06 12:09:19;;;;;;;7.03;2.47;;;;;;;;;;5094725;28;20053;-76
2022/12/06 12:11:53;;;;;;;8.30;2.47;;;;;;;;;;5094385;28;20357;-76
2022/12/06 12:14:24;;;;;;;6.55;2.25;;;;;;;;;;5094541;28;20308;-77
2022/12/06 12:16:53;;;;;;;7.70;2.30;;;;;;;;;;5094353;28;20176;-78
2022/12/06 12:19:31;;;;;;;7.27;2.60;;;;;;;;;;5094385;28;20274;-78
2022/12/06 12:21:59;;;;;;;8.33;2.30;;;;;;;;;;5094218;28;20282;-79
2022/12/06 12:24:55;;;;;;;6.63;2.30;;;;;;;;;;5092921;28;20694;-77
2022/12/06 12:27:27;;;;;;;8.57;1.95;;;;;;;;;;5080601;28;20282;-77
2022/12/06 12:30:11;;;;;;;5.77;1.90;;;;;;;;;;5093945;28;20066;-78
2022/12/06 12:32:38;;;;;;;4.83;1.80;;;;;;;;;;5093942;28;20754;-76
2022/12/06 12:35:27;;;;;;;5.20;1.80;;;;;;;;;;5094137;28;20303;-75
2022/12/06 12:38:13;;;;;;;6.37;2.00;;;;;;;;;;5093890;28;20294;-77
2022/12/06 12:40:41;;;;;;;3.40;1.47;;;;;;;;;;5093925;28;20278;-76
2022/12/06 12:43:10;;;;;;;5.40;1.97;;;;;;;;;;5090386;28;20290;-77
2022/12/06 12:45:38;;;;;;;4.23;1.50;;;;;;;;;;5090220;28;20290;-78
2022/12/06 12:48:20;;;;;;;4.73;2.10;;;;;;;;;;5091573;28;20297;-75
2022/12/06 12:50:53;;;;;;;5.93;1.80;;;;;;;;;;5074568;28;20290;-76
2022/12/06 12:53:28;;;;;;;4.47;1.60;;;;;;;;;;5093011;28;20615;-78
2022/12/06 12:56:05;;;;;;;6.32;1.88;;;;;;;;;;5091181;28;20308;-78
2022/12/06 12:58:31;;;;;;;9.33;1.87;;;;;;;;;;5090891;28;20066;-75
2022/12/06 13:01:01;;;;;;;5.03;1.80;;;;;;;;;;5091064;28;20762;-77
2022/12/06 13:03:27;;;;;;;5.77;1.67;;;;;;;;;;5090699;28;20361;-78
2022/12/06 13:05:53;;;;;;;4.83;1.33;;;;;;;;;;5092050;28;20286;-77
2022/12/06 13:08:21;;;;;;;6.73;1.43;;;;;;;;;;5091208;28;20668;-79
2022/12/06 13:10:49;;;;;;;3.53;1.67;;;;;;;;;;5087372;28;20287;-75
2022/12/06 13:13:21;;;;;;;6.47;1.43;;;;;;;;;;5091796;28;20634;-76
2022/12/06 13:15:49;;;;;;;5.87;1.33;;;;;;;;;;5092276;28;20366;-76
2022/12/06 13:18:21;;;;;;;8.27;1.57;;;;;;;;;;5093313;28;20282;-75
2022/12/06 13:20:48;;;;;;;3.43;1.30;;;;;;;;;;5092949;28;20289;-77
2022/12/06 13:23:17;;;;;;;4.60;1.30;;;;;;;;;;5093373;28;20286;-76
2022/12/06 13:25:51;;;;;;;3.97;1.43;;;;;;;;;;5093020;28;20615;-77
2022/12/06 13:28:20;;;;;;;2.97;1.00;;;;;;;;;;5093555;28;20270;-78
2022/12/06 13:30:47;;;;;;;3.23;1.40;;;;;;;;;;5092024;28;20294;-76
2022/12/06 13:33:18;;;;;;;3.30;1.00;;;;;;;;;;5093221;28;20278;-77
2022/12/06 13:35:49;;;;;;;4.77;1.20;;;;;;;;;;5091141;28;20777;-78
2022/12/06 13:38:18;;;;;;;6.83;1.50;;;;;;;;;;5093172;28;20270;-76
2022/12/06 13:40:48;;;;;;;5.67;1.57;;;;;;;;;;5092747;28;20373;-76
2022/12/06 13:43:23;;;;;;;7.53;1.70;;;;;;;;;;5091824;28;20290;-76
2022/12/06 13:46:08;;;;;;;5.40;1.80;;;;;;;;;;5092799;28;20361;-76
2022/12/06 13:48:36;;;;;;;6.90;1.80;;;;;;;;;;5075276;28;20062;-76
2022/12/06 13:51:04;;;;;;;4.07;1.73;;;;;;;;;;5093075;28;20288;-76
2022/12/06 13:53:32;;;;;;;5.67;2.10;;;;;;;;;;5092986;28;20819;-75
2022/12/06 13:56:00;;;;;;;4.87;2.07;;;;;;;;;;5091502;28;20341;-76
2022/12/06 13:58:27;;;;;;;5.40;2.00;;;;;;;;;;5093070;28;20339;-76
2022/12/06 14:00:56;;;;;;;7.00;2.20;;;;;;;;;;5092638;28;20372;-76